Time;durP1;ratioP1;P1;durP2;ratioP2;P2;SDS_P1;SDS_P2;PMS_P1;PMS_P2;Temp;Humidity;BMP_temperature;BMP_pressure;BME280_temperature;BME280_humidity;BME280_pressure;Samples;Min_cycle;Max_cycle;Signal;HPM_P1;HPM_P2
2024/01/13 00:01:22;;;;;;;2.95;0.55;;;4.80;99.90;;;;;;4863230;29;20055;-76
2024/01/13 00:03:48;;;;;;;6.00;0.50;;;4.80;99.90;;;;;;4863451;29;20049;-76
2024/01/13 00:06:13;;;;;;;5.50;0.55;;;4.80;99.90;;;;;;4862797;29;20416;-76
2024/01/13 00:08:39;;;;;;;3.25;0.35;;;4.70;99.90;;;;;;4863003;29;20052;-76
2024/01/13 00:11:05;;;;;;;3.92;0.43;;;4.80;99.90;;;;;;4863162;29;20410;-76
2024/01/13 00:13:39;;;;;;;3.08;0.73;;;4.80;99.90;;;;;;4863283;29;20060;-76
2024/01/13 00:16:05;;;;;;;7.78;0.65;;;4.70;99.90;;;;;;4863309;29;20124;-76
2024/01/13 00:18:31;;;;;;;4.95;1.02;;;4.70;99.90;;;;;;4863327;29;20057;-76
2024/01/13 00:20:56;;;;;;;7.55;0.85;;;4.70;99.90;;;;;;4862896;29;20052;-76
2024/01/13 00:23:22;;;;;;;6.38;1.25;;;4.70;99.90;;;;;;4862928;29;20057;-76
2024/01/13 00:25:47;;;;;;;3.45;0.60;;;4.60;99.90;;;;;;4863155;29;20052;-76
2024/01/13 00:28:13;;;;;;;6.20;0.70;;;4.60;99.90;;;;;;4862896;29;20049;-76
2024/01/13 00:30:38;;;;;;;3.38;0.98;;;4.60;99.90;;;;;;4862916;29;20137;-76
2024/01/13 00:33:04;;;;;;;5.50;0.63;;;4.60;99.90;;;;;;4863169;29;20049;-76
2024/01/13 00:35:30;;;;;;;8.85;0.88;;;4.50;99.90;;;;;;4862683;29;20526;-76
2024/01/13 00:37:56;;;;;;;7.07;0.50;;;4.60;99.90;;;;;;4862708;29;20053;-76
2024/01/13 00:40:21;;;;;;;2.35;0.40;;;4.60;99.90;;;;;;4862767;29;20056;-76
2024/01/13 00:42:47;;;;;;;5.35;0.57;;;4.60;99.90;;;;;;4862910;29;20101;-76
2024/01/13 00:45:12;;;;;;;6.60;0.75;;;4.70;99.90;;;;;;4863025;29;20057;-76
2024/01/13 00:47:42;;;;;;;8.90;0.90;;;4.60;99.90;;;;;;4864716;29;20080;-76
2024/01/13 00:50:08;;;;;;;9.85;1.20;;;4.60;99.90;;;;;;4866341;29;20072;-76
2024/01/13 00:52:34;;;;;;;4.50;0.95;;;4.60;99.90;;;;;;4866374;29;20048;-76
2024/01/13 00:54:59;;;;;;;11.65;1.17;;;4.60;99.90;;;;;;4866308;29;20139;-76
2024/01/13 00:57:25;;;;;;;7.38;1.77;;;4.60;99.90;;;;;;4866143;29;20405;-76
2024/01/13 00:59:51;;;;;;;2.78;0.50;;;4.50;99.90;;;;;;4866164;29;20105;-76
2024/01/13 01:02:16;;;;;;;6.55;0.80;;;4.50;99.90;;;;;;4882758;29;20049;-76
2024/01/13 01:04:42;;;;;;;7.55;0.63;;;4.40;99.90;;;;;;4866095;29;20096;-76
2024/01/13 01:07:07;;;;;;;5.20;1.20;;;4.40;99.90;;;;;;4865758;29;20057;-76
2024/01/13 01:09:35;;;;;;;3.55;0.60;;;4.40;99.90;;;;;;4865784;29;20057;-76
2024/01/13 01:12:00;;;;;;;4.28;0.60;;;4.40;99.90;;;;;;4865782;29;20044;-76
2024/01/13 01:14:29;;;;;;;4.47;0.63;;;4.30;99.90;;;;;;4866055;29;20135;-76
2024/01/13 01:16:54;;;;;;;4.75;0.45;;;4.30;99.90;;;;;;4866049;29;20489;-76
2024/01/13 01:19:20;;;;;;;3.63;0.47;;;4.30;99.90;;;;;;4865782;29;20052;-76
2024/01/13 01:21:46;;;;;;;2.40;0.30;;;4.30;99.90;;;;;;4865718;29;20057;-76
2024/01/13 01:24:11;;;;;;;2.95;0.70;;;4.30;99.90;;;;;;4865531;29;20560;-76
2024/01/13 01:26:37;;;;;;;4.53;0.73;;;4.20;99.90;;;;;;4865893;29;20059;-76
2024/01/13 01:29:03;;;;;;;2.03;0.43;;;4.20;99.90;;;;;;4865590;29;20382;-76
2024/01/13 01:31:28;;;;;;;3.75;0.80;;;4.20;99.90;;;;;;4865835;29;20052;-76
2024/01/13 01:33:54;;;;;;;7.28;0.52;;;4.10;99.90;;;;;;4865418;29;20053;-76
2024/01/13 01:36:19;;;;;;;4.13;0.90;;;4.10;99.90;;;;;;4865606;29;20153;-76
2024/01/13 01:38:45;;;;;;;2.58;0.57;;;4.00;99.90;;;;;;4882175;29;20041;-76
2024/01/13 01:41:13;;;;;;;5.13;0.85;;;4.00;99.90;;;;;;4865417;29;20379;-76
2024/01/13 01:43:39;;;;;;;8.80;2.17;;;3.90;99.90;;;;;;4865593;29;20557;-76
2024/01/13 01:46:06;;;;;;;6.20;1.17;;;3.90;99.90;;;;;;4865509;29;20081;-76
2024/01/13 01:48:37;;;;;;;5.72;1.33;;;3.80;99.90;;;;;;4865162;29;20053;-76
2024/01/13 01:51:04;;;;;;;8.95;1.10;;;3.80;99.90;;;;;;4865406;29;20201;-76
2024/01/13 01:53:30;;;;;;;4.28;0.70;;;3.80;99.90;;;;;;4865110;29;20060;-76
2024/01/13 01:55:57;;;;;;;5.07;0.55;;;3.70;99.90;;;;;;4865350;29;20059;-76
2024/01/13 01:58:23;;;;;;;5.28;0.60;;;3.80;99.90;;;;;;4865198;29;20048;-76
2024/01/13 02:00:49;;;;;;;4.22;0.63;;;3.70;99.90;;;;;;4865057;29;20056;-76
2024/01/13 02:03:15;;;;;;;4.32;0.40;;;3.70;99.90;;;;;;4865690;29;20136;-76
2024/01/13 02:05:40;;;;;;;6.50;0.50;;;3.70;99.90;;;;;;4881762;29;20143;-76
2024/01/13 02:08:10;;;;;;;4.97;0.20;;;3.70;99.90;;;;;;4864767;29;20088;-76
2024/01/13 02:10:36;;;;;;;6.63;0.43;;;3.70;99.90;;;;;;4864861;29;20053;-76
2024/01/13 02:13:01;;;;;;;2.90;0.77;;;3.70;99.90;;;;;;4864804;29;20134;-76
2024/01/13 02:15:27;;;;;;;2.75;0.30;;;3.70;99.90;;;;;;4864897;29;20084;-76
2024/01/13 02:17:52;;;;;;;3.10;0.50;;;3.70;99.90;;;;;;4864689;29;20453;-76
2024/01/13 02:20:18;;;;;;;5.57;0.43;;;3.70;99.90;;;;;;4864641;29;20052;-76
2024/01/13 02:22:44;;;;;;;3.72;0.45;;;3.70;99.90;;;;;;4864662;29;20109;-76
2024/01/13 02:25:10;;;;;;;3.60;0.45;;;3.60;99.90;;;;;;4864918;29;20104;-76
2024/01/13 02:27:35;;;;;;;2.45;0.50;;;3.60;99.90;;;;;;4880950;29;20095;-76
2024/01/13 02:30:01;;;;;;;3.67;1.17;;;3.60;99.90;;;;;;4864364;29;20092;-76
2024/01/13 02:32:27;;;;;;;5.20;0.60;;;3.60;99.90;;;;;;4864287;29;20135;-76
2024/01/13 02:34:56;;;;;;;3.83;0.30;;;3.60;99.90;;;;;;4864432;29;20080;-76
2024/01/13 02:37:21;;;;;;;1.27;0.35;;;3.50;99.90;;;;;;4864330;29;20088;-76
2024/01/13 02:39:47;;;;;;;0.90;0.20;;;3.50;99.90;;;;;;4864416;29;20092;-76
2024/01/13 02:42:15;;;;;;;1.63;0.20;;;3.50;99.90;;;;;;4864178;29;20059;-76
2024/01/13 02:44:41;;;;;;;3.65;0.40;;;3.50;99.90;;;;;;4881013;29;20037;-76
2024/01/13 02:47:07;;;;;;;3.38;0.40;;;3.50;99.90;;;;;;4864541;29;20064;-76
2024/01/13 02:49:32;;;;;;;1.77;0.30;;;3.50;99.90;;;;;;4863971;29;20091;-76
2024/01/13 02:51:58;;;;;;;3.72;0.50;;;3.50;99.90;;;;;;4864253;29;20096;-76
2024/01/13 02:54:23;;;;;;;3.65;0.40;;;3.50;99.90;;;;;;4863911;29;20051;-76
2024/01/13 02:56:49;;;;;;;3.33;0.30;;;3.50;99.90;;;;;;4864074;29;20045;-76
2024/01/13 02:59:14;;;;;;;1.98;0.75;;;3.50;99.90;;;;;;4864099;29;20076;-76
2024/01/13 03:01:40;;;;;;;2.45;0.65;;;3.50;99.90;;;;;;4864121;29;20049;-76
2024/01/13 03:04:06;;;;;;;3.50;0.47;;;3.50;99.90;;;;;;4864178;29;20084;-76
2024/01/13 03:06:32;;;;;;;3.25;0.50;;;3.50;99.90;;;;;;4863641;29;20065;-76
2024/01/13 03:09:01;;;;;;;1.23;0.40;;;3.50;99.90;;;;;;4863638;29;20057;-76
2024/01/13 03:11:26;;;;;;;2.70;0.68;;;3.50;99.90;;;;;;4863265;29;20139;-76
2024/01/13 03:13:52;;;;;;;5.07;0.68;;;3.60;99.90;;;;;;4863640;29;20075;-76
2024/01/13 03:16:18;;;;;;;3.72;0.50;;;3.70;99.90;;;;;;4863678;29;20128;-76
2024/01/13 03:18:43;;;;;;;1.30;0.40;;;3.70;99.90;;;;;;4863517;29;20060;-76
2024/01/13 03:21:12;;;;;;;3.03;0.60;;;3.70;99.90;;;;;;4863968;29;20397;-76
2024/01/13 03:23:38;;;;;;;3.50;0.50;;;3.70;99.90;;;;;;4880342;29;20049;-76
2024/01/13 03:26:04;;;;;;;7.10;0.70;;;3.70;99.90;;;;;;4863606;29;20181;-76
2024/01/13 03:28:30;;;;;;;4.40;0.50;;;3.80;99.90;;;;;;4863350;29;20060;-76
2024/01/13 03:30:55;;;;;;;4.65;0.70;;;3.80;99.90;;;;;;4863414;29;20053;-76
2024/01/13 03:33:21;;;;;;;5.03;0.60;;;3.90;99.90;;;;;;4863474;29;20052;-76
2024/01/13 03:35:47;;;;;;;7.05;1.55;;;3.90;99.90;;;;;;4863306;29;20493;-76
2024/01/13 03:38:12;;;;;;;7.68;0.80;;;3.80;99.90;;;;;;4863479;29;20041;-76
2024/01/13 03:40:38;;;;;;;5.78;0.73;;;3.90;99.90;;;;;;4863533;29;20060;-76
2024/01/13 03:43:03;;;;;;;4.22;0.68;;;3.80;99.90;;;;;;4863485;29;20185;-76
2024/01/13 03:45:29;;;;;;;4.40;0.75;;;3.80;99.90;;;;;;4863198;29;20056;-76
2024/01/13 03:47:55;;;;;;;4.75;0.68;;;3.80;99.90;;;;;;4863407;29;20113;-76
2024/01/13 03:50:20;;;;;;;9.43;1.23;;;3.80;99.90;;;;;;4863512;29;20045;-76
2024/01/13 03:52:46;;;;;;;4.55;1.00;;;3.80;99.90;;;;;;4863479;29;20386;-76
2024/01/13 03:55:12;;;;;;;1.88;0.80;;;3.80;99.90;;;;;;4879880;29;20401;-76
2024/01/13 03:57:38;;;;;;;5.28;0.90;;;3.80;99.90;;;;;;4863306;29;20053;-76
2024/01/13 04:00:04;;;;;;;5.68;1.02;;;3.80;99.90;;;;;;4863144;29;20156;-76
2024/01/13 04:02:29;;;;;;;3.35;0.82;;;3.70;99.90;;;;;;4863069;29;20564;-76
2024/01/13 04:04:55;;;;;;;4.00;0.80;;;3.70;99.90;;;;;;4863274;29;20136;-76
2024/01/13 04:07:21;;;;;;;6.20;2.00;;;3.60;99.90;;;;;;4863403;29;20048;-76
2024/01/13 04:09:47;;;;;;;10.57;1.13;;;3.60;99.90;;;;;;4862862;29;20509;-76
2024/01/13 04:12:12;;;;;;;5.88;1.00;;;3.70;99.90;;;;;;4863241;29;20105;-76
2024/01/13 04:14:38;;;;;;;4.72;0.70;;;3.80;99.90;;;;;;4863247;29;20049;-76
2024/01/13 04:17:04;;;;;;;5.68;1.30;;;3.90;99.90;;;;;;4863116;29;20056;-76
2024/01/13 04:19:29;;;;;;;3.85;0.60;;;3.90;99.90;;;;;;4863212;29;20084;-76
2024/01/13 04:21:55;;;;;;;6.93;1.10;;;3.90;99.90;;;;;;4864157;29;20045;-76
2024/01/13 04:24:27;;;;;;;4.45;0.85;;;3.80;99.90;;;;;;4866984;29;20477;-76
2024/01/13 04:26:52;;;;;;;4.95;1.70;;;3.80;99.90;;;;;;4866583;29;20057;-76
2024/01/13 04:29:18;;;;;;;9.90;1.10;;;3.80;99.90;;;;;;4866380;29;20063;-76
2024/01/13 04:31:44;;;;;;;4.72;0.98;;;3.80;99.90;;;;;;4866622;29;20060;-76
2024/01/13 04:34:10;;;;;;;7.13;1.17;;;3.80;99.90;;;;;;4866795;29;20045;-76
2024/01/13 04:36:35;;;;;;;5.55;1.00;;;3.70;99.90;;;;;;4866514;29;20460;-76
2024/01/13 04:39:01;;;;;;;4.30;1.45;;;3.70;99.90;;;;;;4866711;29;20049;-76
2024/01/13 04:41:26;;;;;;;6.35;1.27;;;3.70;99.90;;;;;;4866293;29;20044;-76
2024/01/13 04:43:52;;;;;;;4.82;1.15;;;3.70;99.90;;;;;;4866528;29;20053;-76
2024/01/13 04:46:18;;;;;;;4.05;0.60;;;3.70;99.90;;;;;;4883139;29;20091;-76
2024/01/13 04:48:44;;;;;;;2.85;0.50;;;3.70;99.90;;;;;;4882897;29;20053;-76
2024/01/13 04:51:09;;;;;;;4.40;0.50;;;3.70;99.90;;;;;;4866499;29;20041;-76
2024/01/13 04:53:35;;;;;;;2.30;0.43;;;3.60;99.90;;;;;;4866274;29;20049;-76
2024/01/13 04:56:01;;;;;;;4.43;0.50;;;3.60;99.90;;;;;;4866221;29;20077;-76
2024/01/13 04:58:26;;;;;;;2.78;0.50;;;3.60;99.90;;;;;;4866368;29;20100;-76
2024/01/13 05:00:52;;;;;;;2.13;0.40;;;3.50;99.90;;;;;;4882864;29;20105;-76
2024/01/13 05:03:18;;;;;;;1.58;0.20;;;3.50;99.90;;;;;;4866298;29;20052;-76
2024/01/13 05:05:43;;;;;;;2.50;0.40;;;3.50;99.90;;;;;;4865942;29;20069;-76
2024/01/13 05:08:11;;;;;;;4.38;0.50;;;3.50;99.90;;;;;;4866096;29;20057;-76
2024/01/13 05:10:37;;;;;;;2.75;0.85;;;3.50;99.90;;;;;;4866077;29;20101;-76
2024/01/13 05:13:03;;;;;;;5.97;1.27;;;3.50;99.90;;;;;;4865813;29;20095;-76
2024/01/13 05:15:28;;;;;;;2.42;0.63;;;3.50;99.90;;;;;;4865967;29;20477;-76
2024/01/13 05:17:54;;;;;;;3.88;0.43;;;3.50;99.90;;;;;;4882625;29;20132;-76
2024/01/13 05:20:19;;;;;;;1.92;0.50;;;3.40;99.90;;;;;;4865723;29;20056;-76
2024/01/13 05:22:45;;;;;;;4.10;0.77;;;3.40;99.90;;;;;;4865707;29;20072;-76
2024/01/13 05:25:11;;;;;;;6.57;1.17;;;3.40;99.90;;;;;;4865582;29;20053;-76
2024/01/13 05:27:36;;;;;;;4.53;0.70;;;3.40;99.90;;;;;;4865546;29;20045;-76
2024/01/13 05:30:03;;;;;;;5.72;0.68;;;3.40;99.90;;;;;;4882317;29;20059;-76
2024/01/13 05:32:31;;;;;;;5.18;0.73;;;3.40;99.90;;;;;;4865035;29;20057;-76
2024/01/13 05:34:57;;;;;;;7.22;0.90;;;3.30;99.90;;;;;;4865540;29;20136;-76
2024/01/13 05:37:23;;;;;;;7.47;0.70;;;3.40;99.90;;;;;;4865716;29;20128;-76
2024/01/13 05:39:49;;;;;;;5.43;1.45;;;3.30;99.90;;;;;;4865008;29;20045;-76
2024/01/13 05:42:15;;;;;;;5.50;1.25;;;3.30;99.90;;;;;;4865602;29;20056;-76
2024/01/13 05:44:41;;;;;;;4.15;0.98;;;3.30;99.90;;;;;;4865458;29;20401;-76
2024/01/13 05:47:08;;;;;;;1.95;0.50;;;3.30;99.90;;;;;;4865432;29;20081;-76
2024/01/13 05:49:34;;;;;;;3.20;0.65;;;3.30;99.90;;;;;;4865331;29;20080;-76
2024/01/13 05:52:00;;;;;;;4.70;0.65;;;3.30;99.90;;;;;;4865240;29;20553;-76
2024/01/13 05:54:25;;;;;;;2.20;0.70;;;3.30;99.90;;;;;;4881994;29;20105;-76
2024/01/13 05:56:51;;;;;;;4.60;0.60;;;3.30;99.90;;;;;;4865080;29;20400;-76
2024/01/13 05:59:16;;;;;;;3.42;0.70;;;3.20;99.90;;;;;;4865086;29;20136;-76
2024/01/13 06:01:42;;;;;;;4.28;0.85;;;3.20;99.90;;;;;;4865046;29;20055;-76
2024/01/13 06:04:08;;;;;;;5.82;0.90;;;3.20;99.90;;;;;;4865285;29;20136;-76
2024/01/13 06:06:33;;;;;;;3.95;0.35;;;3.20;99.90;;;;;;4864642;29;20061;-76
2024/01/13 06:09:00;;;;;;;3.65;0.55;;;3.30;99.90;;;;;;4864845;29;20049;-76
2024/01/13 06:11:26;;;;;;;3.92;0.55;;;3.30;99.90;;;;;;4881652;29;20097;-76
2024/01/13 06:13:53;;;;;;;3.58;0.68;;;3.20;99.90;;;;;;4865069;29;20052;-76
2024/01/13 06:16:18;;;;;;;5.68;0.60;;;3.30;99.90;;;;;;4864856;29;20087;-76
2024/01/13 06:18:44;;;;;;;4.43;0.80;;;3.30;99.90;;;;;;4865075;29;20076;-76
2024/01/13 06:21:10;;;;;;;5.07;0.60;;;3.30;99.90;;;;;;4864758;29;20048;-76
2024/01/13 06:23:35;;;;;;;1.95;0.43;;;3.30;99.90;;;;;;4864608;29;20049;-76
2024/01/13 06:26:01;;;;;;;3.03;0.55;;;3.20;99.90;;;;;;4864762;29;20041;-76
2024/01/13 06:28:26;;;;;;;3.28;0.60;;;3.20;99.90;;;;;;4864468;29;20089;-76
2024/01/13 06:30:52;;;;;;;4.45;0.80;;;3.20;99.90;;;;;;4864794;29;20045;-76
2024/01/13 06:33:18;;;;;;;2.92;0.52;;;3.20;99.90;;;;;;4864817;29;20088;-76
2024/01/13 06:35:43;;;;;;;5.50;0.88;;;3.20;99.90;;;;;;4864723;29;20405;-76
2024/01/13 06:38:09;;;;;;;3.55;0.68;;;3.20;99.90;;;;;;4864332;29;20052;-76
2024/01/13 06:40:34;;;;;;;5.85;0.57;;;3.20;99.90;;;;;;4881140;29;20108;-76
2024/01/13 06:43:00;;;;;;;6.38;0.68;;;3.20;99.90;;;;;;4864526;29;20045;-76
2024/01/13 06:45:26;;;;;;;4.05;0.50;;;3.20;99.90;;;;;;4863778;29;20044;-76
2024/01/13 06:47:51;;;;;;;5.05;0.70;;;3.20;99.90;;;;;;4864476;29;20084;-76
2024/01/13 06:50:17;;;;;;;5.55;0.40;;;3.20;99.90;;;;;;4864250;29;20500;-76
2024/01/13 06:52:42;;;;;;;4.90;0.50;;;3.20;99.90;;;;;;4864323;29;20037;-76
2024/01/13 06:55:08;;;;;;;4.85;1.02;;;3.30;99.90;;;;;;4864337;29;20057;-76
2024/01/13 06:57:34;;;;;;;2.80;0.68;;;3.30;99.90;;;;;;4864057;29;20500;-76
2024/01/13 07:00:00;;;;;;;5.45;0.70;;;3.30;99.90;;;;;;4864196;29;20047;-76
2024/01/13 07:02:25;;;;;;;8.52;1.20;;;3.40;99.90;;;;;;4864245;29;20055;-76
2024/01/13 07:04:51;;;;;;;10.85;2.33;;;3.40;99.90;;;;;;4863935;29;20053;-76
2024/01/13 07:07:16;;;;;;;10.48;3.25;;;3.40;99.90;;;;;;4863665;29;20514;-76
2024/01/13 07:09:42;;;;;;;16.50;4.38;;;3.50;99.90;;;;;;4863727;29;20056;-76
2024/01/13 07:12:09;;;;;;;21.27;6.60;;;3.50;99.90;;;;;;4864070;29;20048;-76
2024/01/13 07:14:35;;;;;;;18.38;7.32;;;3.50;99.90;;;;;;4863799;29;20056;-76
2024/01/13 07:17:00;;;;;;;27.58;9.90;;;3.50;99.90;;;;;;4863800;29;20480;-76
2024/01/13 07:19:26;;;;;;;34.63;14.13;;;3.50;99.90;;;;;;4863992;29;20080;-76
2024/01/13 07:21:51;;;;;;;39.45;15.98;;;3.50;99.90;;;;;;4863617;29;20445;-76
2024/01/13 07:24:17;;;;;;;47.00;18.15;;;3.50;99.90;;;;;;4863855;29;20124;-76
2024/01/13 07:26:43;;;;;;;51.65;21.48;;;3.50;99.90;;;;;;4880159;29;20099;-77
2024/01/13 07:29:09;;;;;;;50.45;25.17;;;3.50;99.90;;;;;;4863543;29;20052;-77
2024/01/13 07:31:35;;;;;;;50.50;24.15;;;3.60;99.90;;;;;;4863945;29;20374;-77
2024/01/13 07:34:01;;;;;;;49.03;24.42;;;3.60;99.90;;;;;;4863841;29;20053;-77
2024/01/13 07:36:26;;;;;;;56.58;26.83;;;3.60;99.90;;;;;;4863265;29;20041;-77
2024/01/13 07:38:52;;;;;;;57.83;28.88;;;3.60;99.90;;;;;;4863657;29;20162;-77
2024/01/13 07:41:17;;;;;;;64.22;28.85;;;3.60;99.90;;;;;;4880188;29;20484;-77
2024/01/13 07:43:46;;;;;;;58.63;27.85;;;3.60;99.90;;;;;;4863452;29;20045;-76
2024/01/13 07:46:12;;;;;;;51.83;26.15;;;3.60;99.90;;;;;;4863733;29;20052;-76
2024/01/13 07:48:38;;;;;;;57.17;27.15;;;3.60;99.90;;;;;;4863400;29;20057;-77
2024/01/13 07:51:05;;;;;;;49.63;26.27;;;3.60;99.90;;;;;;4863201;29;20053;-76
2024/01/13 07:53:31;;;;;;;53.13;25.92;;;3.60;99.90;;;;;;4863426;29;20064;-76
2024/01/13 07:55:57;;;;;;;58.35;26.23;;;3.60;99.90;;;;;;4863236;29;20048;-76
2024/01/13 07:58:22;;;;;;;54.65;26.17;;;3.60;99.90;;;;;;4862989;29;20044;-75
2024/01/13 08:00:48;;;;;;;52.13;25.85;;;3.60;99.90;;;;;;4863268;29;20101;-76
2024/01/13 08:03:14;;;;;;;55.80;25.10;;;3.60;99.90;;;;;;4863428;29;20060;-76
2024/01/13 08:05:40;;;;;;;49.25;24.50;;;3.60;99.90;;;;;;4863116;29;20121;-76
2024/01/13 08:08:09;;;;;;;49.53;22.40;;;3.60;99.90;;;;;;4860541;29;20057;-77
2024/01/13 08:10:37;;;;;;;50.15;22.48;;;3.60;99.90;;;;;;4868882;29;20510;-75
2024/01/13 08:13:04;;;;;;;51.75;23.67;;;3.60;99.90;;;;;;4843645;29;20060;-75
2024/01/13 08:15:30;;;;;;;53.33;23.75;;;3.70;99.90;;;;;;4844477;29;20042;-75
2024/01/13 08:17:55;;;;;;;48.42;23.55;;;3.70;99.90;;;;;;4844479;29;20137;-75
2024/01/13 08:20:21;;;;;;;54.78;24.65;;;3.70;99.90;;;;;;4844202;29;20049;-75
2024/01/13 08:22:47;;;;;;;57.08;25.90;;;3.70;99.90;;;;;;4844521;29;20088;-75
2024/01/13 08:25:13;;;;;;;58.67;26.42;;;3.70;99.90;;;;;;4844274;29;20401;-75
2024/01/13 08:27:39;;;;;;;58.95;24.73;;;3.70;99.90;;;;;;4844041;29;20094;-75
2024/01/13 08:30:05;;;;;;;65.43;26.23;;;3.70;99.90;;;;;;4844098;29;20053;-80
2024/01/13 08:32:31;;;;;;;55.78;23.23;;;3.80;99.90;;;;;;4844106;29;20064;-76
2024/01/13 08:34:57;;;;;;;59.30;24.52;;;3.70;99.90;;;;;;4844082;29;20053;-76
2024/01/13 08:37:23;;;;;;;52.50;23.25;;;3.80;99.90;;;;;;4844125;29;20060;-76
2024/01/13 08:39:49;;;;;;;57.05;24.08;;;3.80;99.90;;;;;;4844010;29;20054;-76
2024/01/13 08:42:14;;;;;;;63.65;24.17;;;3.70;99.90;;;;;;4844092;29;20053;-75
2024/01/13 08:44:40;;;;;;;50.80;21.13;;;3.80;99.90;;;;;;4843890;29;20049;-76
2024/01/13 08:47:06;;;;;;;45.05;17.95;;;3.80;99.90;;;;;;4843936;29;20050;-76
2024/01/13 08:49:31;;;;;;;45.25;18.35;;;3.80;99.90;;;;;;4843973;29;20186;-77
2024/01/13 08:51:57;;;;;;;45.80;17.00;;;3.80;99.90;;;;;;4844274;29;20184;-76
2024/01/13 08:54:23;;;;;;;39.67;15.38;;;3.80;99.90;;;;;;4844043;29;20132;-76
2024/01/13 08:56:51;;;;;;;40.80;17.95;;;3.90;99.90;;;;;;4843897;29;20045;-76
2024/01/13 08:59:17;;;;;;;40.03;16.13;;;3.90;99.90;;;;;;4842810;29;20091;-77
2024/01/13 09:01:43;;;;;;;45.03;15.70;;;3.90;99.90;;;;;;4844073;29;20118;-77
2024/01/13 09:04:09;;;;;;;35.15;13.40;;;3.90;99.90;;;;;;4860663;29;20446;-77
2024/01/13 09:06:34;;;;;;;36.05;14.10;;;3.90;99.90;;;;;;4843651;29;20061;-77
2024/01/13 09:09:02;;;;;;;41.03;15.05;;;4.00;99.90;;;;;;4846090;29;20052;-77
2024/01/13 09:11:28;;;;;;;39.72;13.63;;;4.00;99.90;;;;;;4847332;29;20504;-77
2024/01/13 09:13:54;;;;;;;34.30;13.32;;;4.00;99.90;;;;;;4847260;29;20057;-77
2024/01/13 09:16:20;;;;;;;40.17;14.75;;;4.00;99.90;;;;;;4847060;29;20456;-77
2024/01/13 09:18:45;;;;;;;38.50;13.25;;;4.00;99.90;;;;;;4847279;29;20096;-77
2024/01/13 09:21:12;;;;;;;37.90;13.95;;;4.00;99.90;;;;;;4847215;29;20037;-77
2024/01/13 09:23:40;;;;;;;40.65;14.77;;;4.00;99.90;;;;;;4846896;29;20049;-77
2024/01/13 09:26:05;;;;;;;34.97;12.40;;;4.00;99.90;;;;;;4847112;29;20120;-77
2024/01/13 09:28:32;;;;;;;31.85;11.63;;;4.00;99.90;;;;;;4863329;29;20133;-78
2024/01/13 09:30:58;;;;;;;34.33;11.32;;;4.00;99.90;;;;;;4846767;29;20057;-78
2024/01/13 09:33:24;;;;;;;42.47;12.68;;;4.10;99.90;;;;;;4846652;29;20046;-78
2024/01/13 09:35:50;;;;;;;31.63;13.93;;;4.10;99.90;;;;;;4846652;29;20053;-77
2024/01/13 09:38:15;;;;;;;16.92;4.72;;;4.10;99.90;;;;;;4846654;29;20084;-77
2024/01/13 09:40:41;;;;;;;10.95;3.63;;;4.10;99.90;;;;;;4846916;29;20081;-77
2024/01/13 09:43:47;;;;;;;9.57;2.80;;;4.20;99.90;;;;;;4846715;29;20045;-77
2024/01/13 09:46:13;;;;;;;14.73;3.58;;;4.30;99.90;;;;;;4831268;29;20055;-78
2024/01/13 09:48:39;;;;;;;9.07;2.60;;;4.50;99.90;;;;;;4846344;29;20049;-77
2024/01/13 09:51:05;;;;;;;8.57;2.20;;;4.60;99.90;;;;;;4846521;29;20069;-77
2024/01/13 09:53:31;;;;;;;15.55;3.33;;;4.60;99.90;;;;;;4846208;29;20077;-77
2024/01/13 09:56:02;;;;;;;12.35;2.10;;;4.70;99.90;;;;;;4846639;29;20084;-77
2024/01/13 09:58:28;;;;;;;10.57;2.88;;;4.70;99.90;;;;;;4846514;29;20049;-78
2024/01/13 10:00:55;;;;;;;11.70;2.67;;;4.70;99.90;;;;;;4846265;29;20450;-78
2024/01/13 10:03:21;;;;;;;10.18;2.17;;;4.70;99.90;;;;;;4862819;29;20509;-77
2024/01/13 10:05:50;;;;;;;13.95;3.42;;;4.70;99.90;;;;;;4846115;29;20061;-77
2024/01/13 10:08:31;;;;;;;10.15;2.30;;;4.80;99.90;;;;;;4845912;29;20504;-77
2024/01/13 10:10:56;;;;;;;10.10;3.28;;;4.80;99.90;;;;;;4846428;29;20136;-77
2024/01/13 10:13:25;;;;;;;13.38;2.97;;;4.80;99.90;;;;;;4846053;29;20125;-77
2024/01/13 10:15:54;;;;;;;10.65;2.65;;;4.70;99.90;;;;;;4862572;29;20053;-77
2024/01/13 10:18:24;;;;;;;9.50;2.70;;;4.70;99.90;;;;;;4846227;29;20081;-76
2024/01/13 10:20:50;;;;;;;5.55;1.98;;;4.70;99.90;;;;;;4845836;29;20049;-76
2024/01/13 10:23:17;;;;;;;9.15;2.90;;;4.70;99.90;;;;;;4845845;29;20058;-76
2024/01/13 10:25:43;;;;;;;9.38;2.47;;;4.70;99.90;;;;;;4846133;29;20047;-76
2024/01/13 10:28:09;;;;;;;14.48;3.00;;;4.70;99.90;;;;;;4845860;29;20055;-76
2024/01/13 10:30:34;;;;;;;15.82;2.42;;;4.70;99.90;;;;;;4862361;29;20461;-76
2024/01/13 10:33:00;;;;;;;13.02;2.80;;;4.70;99.90;;;;;;4845929;29;20045;-76
2024/01/13 10:35:27;;;;;;;10.90;2.88;;;4.70;99.90;;;;;;4845774;29;20053;-76
2024/01/13 10:37:56;;;;;;;12.07;2.40;;;4.70;99.90;;;;;;4845626;29;20076;-76
2024/01/13 10:40:21;;;;;;;13.98;3.45;;;4.70;99.90;;;;;;4845820;29;20053;-76
2024/01/13 10:42:51;;;;;;;13.50;3.10;;;4.70;99.90;;;;;;4862113;29;20056;-76
2024/01/13 10:45:22;;;;;;;9.80;2.90;;;4.70;99.90;;;;;;4845449;29;20132;-76
2024/01/13 10:47:53;;;;;;;13.23;3.80;;;4.80;99.90;;;;;;4845308;29;20390;-76
2024/01/13 10:50:19;;;;;;;10.98;2.90;;;4.80;99.90;;;;;;4845661;29;20064;-76
2024/01/13 10:52:56;;;;;;;10.73;2.30;;;4.80;99.90;;;;;;4845334;29;20046;-76
2024/01/13 10:55:23;;;;;;;11.02;2.45;;;4.80;99.90;;;;;;4845509;29;20049;-76
2024/01/13 10:57:49;;;;;;;15.85;2.60;;;4.80;99.90;;;;;;4845240;29;20128;-76
2024/01/13 11:00:16;;;;;;;16.13;3.08;;;4.80;99.90;;;;;;4845345;29;20060;-77
2024/01/13 11:02:42;;;;;;;10.85;3.20;;;4.80;99.90;;;;;;4845480;29;20053;-77
2024/01/13 11:05:10;;;;;;;14.57;2.60;;;4.90;99.90;;;;;;4844969;29;20124;-77
2024/01/13 11:07:38;;;;;;;18.33;2.97;;;4.90;99.90;;;;;;4845179;29;20483;-76
2024/01/13 11:10:11;;;;;;;8.40;1.75;;;4.90;99.90;;;;;;4844960;29;20053;-75
2024/01/13 11:13:08;;;;;;;14.90;2.45;;;4.90;99.90;;;;;;4845171;29;20056;-76
2024/01/13 11:15:56;;;;;;;10.55;3.35;;;5.00;99.90;;;;;;4832912;29;20148;-76
2024/01/13 11:18:22;;;;;;;17.67;3.00;;;4.90;99.90;;;;;;4858976;29;20124;-76
2024/01/13 11:21:08;;;;;;;8.73;2.60;;;5.00;99.90;;;;;;4861691;29;20529;-76
2024/01/13 11:23:56;;;;;;;8.75;2.40;;;5.00;99.90;;;;;;4861883;29;20051;-76
2024/01/13 11:26:32;;;;;;;21.20;3.88;;;4.90;99.90;;;;;;4861639;29;20077;-76
2024/01/13 11:28:58;;;;;;;9.50;2.20;;;4.90;99.90;;;;;;4861205;29;20109;-76
2024/01/13 11:31:36;;;;;;;14.95;2.13;;;4.90;99.90;;;;;;4862253;29;20081;-76
2024/01/13 11:34:05;;;;;;;14.98;3.30;;;5.00;99.90;;;;;;4862049;29;20053;-76
2024/01/13 11:36:33;;;;;;;9.25;2.40;;;5.00;99.90;;;;;;4860098;29;20053;-76
2024/01/13 11:39:03;;;;;;;7.43;2.50;;;5.00;99.90;;;;;;4862550;29;20105;-76
2024/01/13 11:41:46;;;;;;;8.98;3.15;;;5.00;99.90;;;;;;4862550;29;20056;-76
2024/01/13 11:44:41;;;;;;;10.50;2.53;;;5.00;99.90;;;;;;4859774;29;20056;-77
2024/01/13 11:47:13;;;;;;;8.68;2.40;;;5.10;99.90;;;;;;4862515;29;20045;-77
2024/01/13 11:49:47;;;;;;;8.63;2.37;;;5.10;99.90;;;;;;4862512;29;20055;-76
2024/01/13 11:52:28;;;;;;;9.00;2.00;;;5.10;99.90;;;;;;4860093;29;20052;-76
2024/01/13 11:54:54;;;;;;;12.48;2.67;;;5.10;99.90;;;;;;4844940;29;20140;-76
2024/01/13 11:57:20;;;;;;;13.82;2.97;;;5.10;99.90;;;;;;4862403;29;20037;-75
2024/01/13 11:59:46;;;;;;;10.40;2.10;;;5.20;99.90;;;;;;4862573;29;20408;-76
2024/01/13 12:02:12;;;;;;;7.75;1.70;;;5.20;99.90;;;;;;4862469;29;20490;-76
2024/01/13 12:04:41;;;;;;;9.57;2.22;;;5.20;99.90;;;;;;4862183;29;20058;-76
2024/01/13 12:07:12;;;;;;;8.93;1.50;;;5.20;99.90;;;;;;4875384;29;20061;-75
2024/01/13 12:09:39;;;;;;;13.60;1.50;;;5.30;99.90;;;;;;4862592;29;20060;-74
2024/01/13 12:12:06;;;;;;;7.68;1.30;;;5.30;99.90;;;;;;4862700;29;20053;-75
2024/01/13 12:14:34;;;;;;;11.55;1.58;;;5.30;99.90;;;;;;4862709;29;20097;-79
2024/01/13 12:17:04;;;;;;;12.02;1.85;;;5.40;99.90;;;;;;4862638;29;20060;-76
2024/01/13 12:19:36;;;;;;;9.73;1.23;;;5.40;99.90;;;;;;4862593;29;20420;-75
2024/01/13 12:22:07;;;;;;;6.25;1.20;;;5.50;99.90;;;;;;4862708;29;20498;-75
2024/01/13 12:24:34;;;;;;;7.82;1.30;;;5.60;99.90;;;;;;4862952;29;20264;-76
2024/01/13 12:27:00;;;;;;;11.60;1.60;;;5.60;99.90;;;;;;4862832;29;20410;-76
2024/01/13 12:29:29;;;;;;;8.50;1.88;;;5.70;99.90;;;;;;4862561;29;20166;-76
2024/01/13 12:32:03;;;;;;;7.03;2.00;;;5.60;99.90;;;;;;4862649;29;20041;-74
2024/01/13 12:34:31;;;;;;;8.65;2.70;;;5.70;99.90;;;;;;4862819;29;20049;-74
2024/01/13 12:36:57;;;;;;;12.48;2.85;;;5.60;99.90;;;;;;4862593;29;20117;-75
2024/01/13 12:39:23;;;;;;;13.38;1.80;;;5.70;99.90;;;;;;4862435;29;20056;-76
2024/01/13 12:41:49;;;;;;;7.90;1.75;;;5.60;99.90;;;;;;4862537;29;20045;-75
2024/01/13 12:44:18;;;;;;;19.00;2.45;;;5.70;99.90;;;;;;4865453;29;20045;-75
2024/01/13 12:46:44;;;;;;;12.63;2.15;;;5.70;99.90;;;;;;4865964;29;20497;-75
2024/01/13 12:49:14;;;;;;;15.98;1.85;;;5.70;99.90;;;;;;4866002;29;20056;-76